Mandalay, Burma
Current Conditions -  °F | °C
As of 9:30 AM on Thursday 23 Oct 2014 (Local Time) from VYMD Reporting Station
Scattered Clouds Scattered Clouds  
Wind Chill: 86°   Ceiling: Unl
Heat Index: 95°   Visibility: 5mi
Dew Point: 75°   Wind: 2mph
Humidity: 70%   Direction: NA
Pressure: 29.97"   Gusts: NA
Location:  21.98°N, 96.09°E
Report Text: VYMD 230330Z VRB02KT 8000 SCT025 FEW110 30/24 Q1015
Loading
Personal Weather Stations






























Interactive Weather Map
Tropical Storm Tracking
New forecast layout! Learn more

10-Day Weather Forecast

Advertisements
Track Severe Weather on mobile